createdAt,value
2023-02-13T00:01:33.916Z,30.92
2023-02-13T00:04:04.460Z,35.72
2023-02-13T00:06:33.975Z,43.67
2023-02-13T00:09:05.152Z,110.53
2023-02-13T00:11:33.585Z,74.45
2023-02-13T00:14:00.846Z,74.65
2023-02-13T00:16:28.171Z,64.50
2023-02-13T00:18:55.365Z,52.72
2023-02-13T00:21:25.266Z,69.35
2023-02-13T00:23:52.545Z,52.75
2023-02-13T00:26:24.890Z,38.22
2023-02-13T00:28:52.156Z,47.05
2023-02-13T00:31:21.682Z,67.47
2023-02-13T00:33:49.128Z,96.10
2023-02-13T00:36:21.206Z,46.70
2023-02-13T00:38:50.835Z,84.45
2023-02-13T00:41:18.617Z,72.68
2023-02-13T00:43:49.495Z,53.85
2023-02-13T00:46:19.585Z,34.88
2023-02-13T00:48:46.974Z,49.03
2023-02-13T00:51:14.895Z,30.25
2023-02-13T00:53:42.136Z,26.45
2023-02-13T00:56:09.468Z,33.38
2023-02-13T00:58:39.365Z,38.03
2023-02-13T01:01:08.910Z,33.42
2023-02-13T01:03:38.460Z,27.50
2023-02-13T01:06:06.283Z,30.52
2023-02-13T01:08:39.852Z,44.10
2023-02-13T01:11:07.567Z,34.38
2023-02-13T01:13:34.859Z,43.08
2023-02-13T01:16:04.543Z,46.00
2023-02-13T01:18:31.841Z,58.70
2023-02-13T01:21:05.870Z,50.92
2023-02-13T01:23:39.981Z,77.68
2023-02-13T01:26:13.467Z,40.95
2023-02-13T01:28:40.760Z,47.58
2023-02-13T01:31:08.188Z,44.55
2023-02-13T01:33:37.608Z,61.28
2023-02-13T01:36:12.136Z,71.90
2023-02-13T01:38:40.118Z,66.20
2023-02-13T01:41:13.764Z,59.88
2023-02-13T01:43:49.264Z,55.10
2023-02-13T01:46:30.020Z,54.80
2023-02-13T01:49:07.561Z,59.70
2023-02-13T01:51:36.133Z,72.53
2023-02-13T01:54:14.834Z,74.75
2023-02-13T01:56:49.709Z,83.50
2023-02-13T01:59:23.132Z,66.28
2023-02-13T02:01:54.310Z,82.57
2023-02-13T02:04:32.246Z,75.93
2023-02-13T02:07:09.204Z,76.00
2023-02-13T02:09:41.069Z,78.97
2023-02-13T02:12:14.912Z,64.07
2023-02-13T02:14:43.258Z,77.65
2023-02-13T02:17:11.880Z,81.43
2023-02-13T02:20:16.945Z,83.80
2023-02-13T02:23:11.326Z,53.35
2023-02-13T02:26:10.277Z,47.55
2023-02-13T02:28:51.983Z,48.90
2023-02-13T02:31:31.327Z,49.40
2023-02-13T02:34:10.526Z,39.90
2023-02-13T02:37:21.825Z,55.10
2023-02-13T02:40:16.728Z,53.70
2023-02-13T02:42:52.306Z,54.78
2023-02-13T02:45:59.545Z,52.53
2023-02-13T02:48:54.500Z,51.45
2023-02-13T02:51:38.512Z,54.97
2023-02-13T02:54:39.896Z,45.58
2023-02-13T02:57:17.965Z,59.65
2023-02-13T03:00:06.670Z,73.68
2023-02-13T03:02:53.201Z,85.75
2023-02-13T03:05:47.847Z,56.92
2023-02-13T03:08:41.596Z,84.75
2023-02-13T03:13:57.336Z,72.57
2023-02-13T03:16:44.698Z,71.90
2023-02-13T03:19:44.924Z,68.20
2023-02-13T03:22:35.415Z,71.35
2023-02-13T03:25:18.905Z,59.40
2023-02-13T03:31:01.012Z,63.35
2023-02-13T03:33:35.313Z,82.80
2023-02-13T03:36:37.944Z,58.33
2023-02-13T03:39:29.642Z,77.03
2023-02-13T03:42:07.319Z,61.30
2023-02-13T03:45:09.244Z,59.83
2023-02-13T03:47:41.052Z,71.68
2023-02-13T03:50:09.786Z,54.63
2023-02-13T03:52:59.850Z,57.42
2023-02-13T03:55:53.661Z,52.35
2023-02-13T04:01:15.165Z,55.72
2023-02-13T04:03:51.339Z,50.80
2023-02-13T04:06:32.896Z,47.67
2023-02-13T04:09:02.596Z,36.72
2023-02-13T04:11:48.400Z,57.85
2023-02-13T04:14:33.480Z,41.30
2023-02-13T04:17:08.220Z,44.13
2023-02-13T04:19:35.756Z,47.80
2023-02-13T04:22:05.765Z,49.33
2023-02-13T04:24:32.974Z,43.35
2023-02-13T04:27:02.766Z,49.60
2023-02-13T04:29:30.137Z,36.83
2023-02-13T04:31:57.389Z,37.13
2023-02-13T04:34:24.695Z,36.55
2023-02-13T04:36:51.932Z,49.58
2023-02-13T04:39:19.202Z,48.45
2023-02-13T04:41:46.471Z,39.63
2023-02-13T04:44:13.695Z,41.97
2023-02-13T04:46:41.009Z,36.85
2023-02-13T04:49:08.251Z,46.35
2023-02-13T04:51:35.495Z,31.75
2023-02-13T04:54:02.810Z,43.92
2023-02-13T04:56:30.046Z,34.40
2023-02-13T04:58:59.719Z,32.83
2023-02-13T05:01:27.138Z,29.80
2023-02-13T05:03:54.352Z,48.20
2023-02-13T05:06:21.613Z,30.65
2023-02-13T05:08:48.865Z,28.10
2023-02-13T05:11:16.113Z,30.25
2023-02-13T05:13:43.367Z,39.90
2023-02-13T05:16:10.662Z,31.35
2023-02-13T05:18:42.409Z,35.53
2023-02-13T05:21:28.162Z,30.38
2023-02-13T05:23:57.915Z,32.55
2023-02-13T05:26:25.197Z,27.73
2023-02-13T05:29:11.261Z,31.20
2023-02-13T05:31:38.574Z,24.55
2023-02-13T05:34:06.696Z,32.55
2023-02-13T05:36:36.037Z,26.70
2023-02-13T05:39:03.799Z,27.90
2023-02-13T05:41:31.072Z,38.40
2023-02-13T05:43:58.334Z,26.67
2023-02-13T05:46:25.680Z,24.92
2023-02-13T05:48:53.101Z,26.63
2023-02-13T05:51:23.067Z,22.70
2023-02-13T05:53:50.403Z,26.33
2023-02-13T05:56:20.106Z,25.13
2023-02-13T05:58:47.448Z,29.95
2023-02-13T06:01:17.061Z,36.03
2023-02-13T06:03:49.252Z,29.58
2023-02-13T06:06:17.212Z,33.33
2023-02-13T06:08:44.752Z,43.28
2023-02-13T06:11:15.037Z,29.52
2023-02-13T06:13:42.323Z,31.88
2023-02-13T06:16:12.826Z,28.85
2023-02-13T06:18:42.402Z,35.17
2023-02-13T06:21:09.665Z,31.83
2023-02-13T06:23:39.372Z,29.40
2023-02-13T06:26:08.343Z,38.92
2023-02-13T06:28:36.096Z,29.92
2023-02-13T06:31:03.656Z,33.00
2023-02-13T06:33:31.031Z,28.45
2023-02-13T06:35:58.399Z,25.38
2023-02-13T06:38:30.973Z,23.33
2023-02-13T06:41:01.274Z,24.02
2023-02-13T06:43:28.599Z,23.33
2023-02-13T06:45:56.230Z,25.27
2023-02-13T06:48:25.561Z,27.27
2023-02-13T06:50:55.302Z,27.05
2023-02-13T06:53:24.946Z,25.70
2023-02-13T06:55:53.559Z,26.23
2023-02-13T06:58:22.269Z,24.88
2023-02-13T07:00:50.678Z,27.55
2023-02-13T07:03:20.491Z,26.85
2023-02-13T07:05:48.031Z,26.40
2023-02-13T07:08:15.251Z,27.27
2023-02-13T07:10:45.121Z,25.08
2023-02-13T07:13:12.361Z,27.50
2023-02-13T07:15:39.653Z,24.35
2023-02-13T07:18:09.431Z,28.67
2023-02-13T07:20:39.230Z,23.48
2023-02-13T07:23:09.296Z,23.23
2023-02-13T07:25:36.629Z,23.48
2023-02-13T07:28:05.458Z,27.55
2023-02-13T07:30:35.434Z,25.02
2023-02-13T07:33:04.080Z,22.30
2023-02-13T07:35:37.664Z,23.00
2023-02-13T07:38:07.601Z,23.42
2023-02-13T07:40:37.327Z,25.40
2023-02-13T07:43:05.064Z,26.05
2023-02-13T07:45:34.736Z,23.63
2023-02-13T07:48:02.000Z,29.00
2023-02-13T07:50:29.496Z,24.48
2023-02-13T07:53:01.572Z,21.90
2023-02-13T07:55:33.687Z,21.00
2023-02-13T07:58:01.850Z,20.50
2023-02-13T08:00:31.745Z,19.00
2023-02-13T08:03:00.257Z,19.23
2023-02-13T08:05:28.583Z,18.88
2023-02-13T08:07:58.307Z,17.88
2023-02-13T08:10:46.256Z,20.75
2023-02-13T08:13:16.156Z,17.20
2023-02-13T08:15:47.107Z,17.08
2023-02-13T08:18:18.834Z,17.00
2023-02-13T08:20:47.218Z,15.77
2023-02-13T08:23:16.953Z,16.23
2023-02-13T08:25:47.826Z,16.48
2023-02-13T08:28:18.402Z,16.10
2023-02-13T08:30:45.698Z,18.58
2023-02-13T08:33:15.387Z,21.80
2023-02-13T08:35:45.115Z,18.25
2023-02-13T08:38:12.401Z,18.45
2023-02-13T08:40:39.693Z,17.88
2023-02-13T08:43:08.408Z,19.70
2023-02-13T08:45:36.417Z,19.25
2023-02-13T08:48:04.225Z,24.10
2023-02-13T08:50:32.164Z,22.05
2023-02-13T08:52:59.924Z,25.08
2023-02-13T08:55:28.410Z,19.70
2023-02-13T08:57:55.632Z,22.50
2023-02-13T09:00:23.006Z,20.33
2023-02-13T09:02:50.317Z,17.05
2023-02-13T09:05:17.614Z,16.70
2023-02-13T09:07:44.868Z,18.73
2023-02-13T09:10:12.339Z,18.13
2023-02-13T09:12:42.070Z,17.63
2023-02-13T09:15:09.789Z,17.23
2023-02-13T09:17:39.425Z,21.75
2023-02-13T09:20:07.259Z,16.83
2023-02-13T09:22:34.513Z,19.48
2023-02-13T09:25:04.397Z,16.42
2023-02-13T09:27:32.122Z,20.98
2023-02-13T09:30:04.496Z,18.77
2023-02-13T09:32:34.203Z,17.70
2023-02-13T09:35:01.541Z,15.50
2023-02-13T09:37:28.904Z,17.02
2023-02-13T09:39:56.148Z,16.15
2023-02-13T09:42:33.012Z,18.88
2023-02-13T09:45:03.399Z,15.50
2023-02-13T09:47:39.983Z,17.92
2023-02-13T09:50:24.033Z,15.63
2023-02-13T09:52:54.478Z,16.58
2023-02-13T09:55:40.749Z,16.58
2023-02-13T09:58:19.198Z,16.70
2023-02-13T10:00:52.883Z,17.38
2023-02-13T10:03:31.350Z,15.48
2023-02-13T10:06:30.277Z,18.45
2023-02-13T10:09:19.767Z,14.73
2023-02-13T10:12:25.047Z,14.85
2023-02-13T10:15:04.332Z,14.88
2023-02-13T10:17:41.575Z,16.08
2023-02-13T10:20:19.065Z,16.60
2023-02-13T10:23:17.769Z,14.50
2023-02-13T10:25:59.737Z,19.63
2023-02-13T10:29:26.696Z,14.73
2023-02-13T10:31:56.202Z,16.38
2023-02-13T10:34:28.530Z,19.40
2023-02-13T10:36:56.078Z,14.73
2023-02-13T10:39:26.372Z,14.23
2023-02-13T10:42:04.520Z,14.98
2023-02-13T10:44:53.560Z,14.40
2023-02-13T10:47:54.113Z,14.35
2023-02-13T10:50:45.272Z,14.15
2023-02-13T10:53:58.916Z,13.48
2023-02-13T10:56:55.348Z,10.52
2023-02-13T10:59:28.494Z,12.75
2023-02-13T11:02:15.160Z,11.82
2023-02-13T11:04:44.160Z,14.35
2023-02-13T11:07:17.361Z,14.88
2023-02-13T11:09:48.748Z,15.27
2023-02-13T11:12:34.175Z,13.18
2023-02-13T11:15:32.676Z,18.92
2023-02-13T11:18:15.497Z,14.20
2023-02-13T11:20:46.784Z,12.35
2023-02-13T11:23:37.547Z,14.45
2023-02-13T11:26:22.243Z,14.80
2023-02-13T11:28:56.794Z,12.77
2023-02-13T11:31:33.493Z,14.18
2023-02-13T11:34:22.023Z,13.48
2023-02-13T11:36:56.908Z,16.55
2023-02-13T11:39:29.404Z,20.02
2023-02-13T11:42:00.325Z,13.80
2023-02-13T11:44:32.394Z,13.07
2023-02-13T11:47:01.234Z,12.50
2023-02-13T11:49:35.738Z,12.35
2023-02-13T11:52:14.758Z,12.50
2023-02-13T11:54:55.040Z,11.45
2023-02-13T11:57:36.207Z,10.68
2023-02-13T12:00:40.261Z,12.23
2023-02-13T12:03:31.832Z,12.20
2023-02-13T12:06:15.501Z,13.02
2023-02-13T12:08:46.783Z,11.25
2023-02-13T12:11:39.184Z,11.52
2023-02-13T12:14:14.439Z,10.70
2023-02-13T12:16:44.209Z,11.15
2023-02-13T12:19:17.036Z,11.70
2023-02-13T12:22:08.542Z,13.85
2023-02-13T12:24:57.489Z,11.88
2023-02-13T12:27:43.040Z,10.80
2023-02-13T12:30:34.893Z,10.82
2023-02-13T12:33:36.168Z,12.23
2023-02-13T12:36:18.264Z,12.00
2023-02-13T12:39:11.744Z,12.88
2023-02-13T12:41:44.280Z,9.65
2023-02-13T12:44:50.150Z,9.73
2023-02-13T12:47:24.905Z,10.38
2023-02-13T12:50:00.712Z,9.85
2023-02-13T12:52:42.032Z,10.02
2023-02-13T12:55:39.986Z,8.52
2023-02-13T12:58:22.189Z,11.18
2023-02-13T13:01:01.627Z,10.48
2023-02-13T13:03:32.019Z,8.80
2023-02-13T13:06:21.482Z,10.02
2023-02-13T13:09:15.715Z,11.07
2023-02-13T13:12:10.477Z,11.07
2023-02-13T13:15:22.187Z,10.23
2023-02-13T13:17:59.893Z,9.95
2023-02-13T13:21:08.017Z,10.18
2023-02-13T13:24:01.193Z,9.60
2023-02-13T13:26:37.046Z,9.30
2023-02-13T13:29:19.257Z,9.80
2023-02-13T13:32:02.354Z,10.05
2023-02-13T13:34:31.717Z,8.85
2023-02-13T13:37:19.963Z,10.00
2023-02-13T13:39:57.697Z,9.48
2023-02-13T13:42:40.200Z,9.98
2023-02-13T13:45:36.706Z,7.53
2023-02-13T13:48:03.909Z,9.25
2023-02-13T13:50:39.073Z,8.43
2023-02-13T13:53:12.457Z,8.80
2023-02-13T13:55:52.794Z,8.55
2023-02-13T13:58:47.268Z,8.60
2023-02-13T14:01:29.379Z,8.75
2023-02-13T14:04:03.733Z,10.90
2023-02-13T14:06:45.957Z,8.77
2023-02-13T14:09:37.791Z,8.63
2023-02-13T14:12:33.922Z,11.45
2023-02-13T14:15:01.248Z,8.25
2023-02-13T14:17:46.815Z,9.75
2023-02-13T14:20:22.247Z,8.43
2023-02-13T14:22:49.617Z,9.65
2023-02-13T14:25:26.654Z,10.73
2023-02-13T14:28:05.681Z,9.35
2023-02-13T14:30:40.793Z,8.30
2023-02-13T14:33:22.643Z,9.25
2023-02-13T14:36:18.724Z,11.50
2023-02-13T14:38:58.886Z,11.55
2023-02-13T14:41:43.200Z,9.43
2023-02-13T14:44:20.905Z,10.55
2023-02-13T14:46:51.590Z,14.15
2023-02-13T14:49:22.119Z,10.85
2023-02-13T14:51:56.627Z,9.30
2023-02-13T14:54:26.864Z,10.85
2023-02-13T14:57:00.573Z,8.52
2023-02-13T14:59:36.782Z,10.70
2023-02-13T15:02:23.704Z,16.48
2023-02-13T15:05:07.039Z,9.82
2023-02-13T15:07:40.175Z,11.52
2023-02-13T15:10:07.519Z,8.60
2023-02-13T15:12:39.374Z,10.18
2023-02-13T15:15:31.072Z,8.43
2023-02-13T15:18:09.984Z,10.50
2023-02-13T15:20:43.845Z,8.68
2023-02-13T15:23:26.642Z,11.02
2023-02-13T15:26:04.469Z,9.07
2023-02-13T15:28:35.435Z,10.45
2023-02-13T15:31:19.484Z,9.90
2023-02-13T15:33:54.002Z,7.63
2023-02-13T15:36:26.991Z,10.68
2023-02-13T15:39:11.017Z,8.50
2023-02-13T15:41:42.505Z,8.52
2023-02-13T15:44:23.198Z,9.70
2023-02-13T15:46:52.251Z,8.43
2023-02-13T15:49:22.706Z,7.45
2023-02-13T15:51:51.076Z,8.80
2023-02-13T15:54:28.325Z,8.48
2023-02-13T15:57:01.153Z,6.45
2023-02-13T15:59:38.019Z,7.78
2023-02-13T16:02:15.276Z,6.13
2023-02-13T16:04:46.450Z,7.35
2023-02-13T16:07:15.011Z,7.25
2023-02-13T16:09:45.300Z,6.70
2023-02-13T16:12:24.493Z,6.20
2023-02-13T16:14:53.829Z,7.93
2023-02-13T16:17:34.390Z,7.80
2023-02-13T16:20:12.498Z,8.02
2023-02-13T16:22:50.097Z,7.68
2023-02-13T16:25:23.220Z,7.78
2023-02-13T16:27:53.208Z,7.43
2023-02-13T16:30:33.778Z,7.13
2023-02-13T16:33:21.420Z,9.60
2023-02-13T16:35:55.193Z,10.10
2023-02-13T16:38:28.449Z,6.78
2023-02-13T16:41:06.527Z,9.10
2023-02-13T16:43:54.304Z,10.98
2023-02-13T16:46:34.120Z,6.55
2023-02-13T16:49:13.037Z,6.82
2023-02-13T16:51:52.532Z,6.63
2023-02-13T16:54:58.154Z,5.88
2023-02-13T16:57:31.402Z,9.32
2023-02-13T17:00:18.618Z,6.25
2023-02-13T17:02:47.641Z,7.90
2023-02-13T17:05:23.643Z,6.97
2023-02-13T17:07:59.283Z,7.10
2023-02-13T17:10:34.562Z,5.85
2023-02-13T17:13:17.607Z,7.03
2023-02-13T17:15:47.463Z,7.45
2023-02-13T17:18:14.722Z,7.13
2023-02-13T17:20:46.038Z,11.02
2023-02-13T17:23:18.280Z,11.88
2023-02-13T17:25:49.603Z,13.57
2023-02-13T17:28:24.329Z,11.68
2023-02-13T17:30:57.000Z,9.75
2023-02-13T17:33:25.519Z,7.22
2023-02-13T17:35:53.249Z,10.55
2023-02-13T17:38:20.864Z,12.20
2023-02-13T17:40:48.713Z,12.65
2023-02-13T17:43:20.234Z,11.80
2023-02-13T17:45:50.776Z,8.77
2023-02-13T17:48:18.118Z,9.63
2023-02-13T17:50:50.467Z,14.55
2023-02-13T17:53:34.071Z,9.25
2023-02-13T17:56:03.517Z,13.10
2023-02-13T17:58:33.056Z,17.55
2023-02-13T18:01:00.718Z,12.63
2023-02-13T18:03:28.529Z,12.30
2023-02-13T18:05:56.138Z,14.25
2023-02-13T18:08:27.274Z,11.13
2023-02-13T18:10:57.114Z,9.77
2023-02-13T18:13:24.493Z,8.20
2023-02-13T18:15:52.273Z,10.43
2023-02-13T18:18:19.564Z,10.55
2023-02-13T18:20:54.509Z,9.90
2023-02-13T18:23:21.810Z,15.13
2023-02-13T18:25:49.067Z,12.52
2023-02-13T18:28:16.294Z,10.55
2023-02-13T18:30:43.732Z,11.13
2023-02-13T18:33:16.511Z,13.88
2023-02-13T18:35:43.859Z,13.30
2023-02-13T18:38:18.036Z,14.18
2023-02-13T18:40:47.900Z,10.90
2023-02-13T18:43:17.652Z,9.73
2023-02-13T18:45:47.312Z,9.82
2023-02-13T18:48:14.631Z,12.88
2023-02-13T18:50:42.743Z,14.05
2023-02-13T18:53:10.121Z,13.85
2023-02-13T18:55:40.325Z,10.45
2023-02-13T18:58:07.822Z,10.23
2023-02-13T19:00:37.758Z,9.98
2023-02-13T19:03:07.104Z,8.45
2023-02-13T19:05:42.321Z,12.80
2023-02-13T19:08:09.610Z,9.55
2023-02-13T19:10:36.908Z,11.07
2023-02-13T19:13:04.182Z,9.77
2023-02-13T19:15:31.561Z,13.55
2023-02-13T19:17:58.862Z,11.15
2023-02-13T19:20:28.770Z,11.68
2023-02-13T19:22:56.739Z,16.05
2023-02-13T19:25:24.049Z,11.77
2023-02-13T19:27:51.321Z,15.32
2023-02-13T19:30:18.660Z,11.05
2023-02-13T19:32:45.931Z,9.65
2023-02-13T19:35:15.629Z,10.13
2023-02-13T19:37:45.269Z,9.68
2023-02-13T19:40:14.013Z,14.20
2023-02-13T19:42:41.309Z,10.57
2023-02-13T19:45:11.545Z,10.38
2023-02-13T19:47:41.645Z,13.93
2023-02-13T19:50:09.860Z,12.98
2023-02-13T19:52:37.212Z,12.13
2023-02-13T19:55:04.688Z,14.18
2023-02-13T19:57:31.942Z,12.27
2023-02-13T20:00:04.679Z,10.88
2023-02-13T20:02:31.952Z,11.25
2023-02-13T20:04:59.262Z,15.30
2023-02-13T20:07:30.050Z,8.85
2023-02-13T20:09:57.305Z,12.40
2023-02-13T20:12:27.166Z,14.50
2023-02-13T20:14:55.961Z,12.85
2023-02-13T20:17:23.498Z,11.90
2023-02-13T20:19:56.274Z,11.02
2023-02-13T20:22:23.765Z,12.82
2023-02-13T20:24:51.040Z,11.82
2023-02-13T20:27:18.315Z,14.88
2023-02-13T20:29:47.683Z,11.40
2023-02-13T20:32:17.264Z,14.50
2023-02-13T20:34:59.046Z,12.02
2023-02-13T20:37:27.299Z,9.95
2023-02-13T20:39:56.911Z,9.90
2023-02-13T20:42:24.356Z,11.27
2023-02-13T20:44:51.656Z,13.00
2023-02-13T20:47:19.368Z,14.90
2023-02-13T20:49:46.635Z,11.55
2023-02-13T20:52:14.049Z,11.00
2023-02-13T20:54:41.308Z,13.52
2023-02-13T20:57:08.631Z,10.38
2023-02-13T20:59:35.864Z,10.82
2023-02-13T21:02:03.140Z,11.43
2023-02-13T21:04:32.661Z,15.13
2023-02-13T21:07:03.517Z,11.23
2023-02-13T21:09:30.827Z,13.90
2023-02-13T21:12:00.415Z,10.95
2023-02-13T21:14:27.835Z,14.98
2023-02-13T21:16:57.296Z,12.05
2023-02-13T21:19:24.699Z,14.50
2023-02-13T21:21:51.990Z,12.43
2023-02-13T21:24:22.160Z,10.32
2023-02-13T21:26:52.971Z,12.52
2023-02-13T21:29:22.679Z,12.60
2023-02-13T21:31:51.209Z,13.23
2023-02-13T21:34:18.757Z,15.80
2023-02-13T21:36:46.582Z,14.05
2023-02-13T21:39:16.514Z,14.52
2023-02-13T21:41:45.018Z,13.43
2023-02-13T21:44:15.629Z,14.73
2023-02-13T21:46:45.787Z,12.73
2023-02-13T21:49:19.491Z,15.13
2023-02-13T21:51:47.606Z,14.98
2023-02-13T21:54:14.901Z,13.15
2023-02-13T21:56:43.529Z,13.60
2023-02-13T21:59:15.459Z,16.00
2023-02-13T22:01:42.951Z,13.63
2023-02-13T22:04:10.761Z,15.25
2023-02-13T22:06:40.949Z,12.70
2023-02-13T22:09:13.814Z,12.95
2023-02-13T22:11:41.699Z,13.27
2023-02-13T22:14:13.394Z,12.07
2023-02-13T22:16:46.116Z,13.68
2023-02-13T22:19:15.420Z,14.00
2023-02-13T22:21:43.413Z,20.75
2023-02-13T22:24:11.343Z,12.68
2023-02-13T22:26:45.117Z,13.02
2023-02-13T22:29:15.329Z,15.95
2023-02-13T22:31:45.612Z,15.50
2023-02-13T22:34:16.180Z,19.50
2023-02-13T22:36:43.521Z,15.95
2023-02-13T22:39:12.086Z,16.55
2023-02-13T22:41:45.512Z,19.85
2023-02-13T22:46:40.197Z,16.75
2023-02-13T22:49:10.020Z,15.60
2023-02-13T22:51:40.109Z,19.77
2023-02-13T22:54:07.389Z,15.20
2023-02-13T22:56:37.038Z,17.05
2023-02-13T22:59:06.649Z,14.05
2023-02-13T23:01:37.270Z,18.88
2023-02-13T23:04:04.592Z,16.55
2023-02-13T23:06:31.875Z,18.35
2023-02-13T23:09:01.613Z,16.80
2023-02-13T23:11:47.834Z,15.38
2023-02-13T23:14:16.344Z,15.77
2023-02-13T23:17:05.394Z,15.55
2023-02-13T23:19:34.865Z,16.13
2023-02-13T23:22:02.080Z,17.85
2023-02-13T23:24:29.897Z,18.13
2023-02-13T23:26:59.681Z,15.23
2023-02-13T23:29:27.159Z,16.13
2023-02-13T23:31:54.495Z,16.73
2023-02-13T23:34:24.103Z,18.08
2023-02-13T23:36:51.348Z,14.90
2023-02-13T23:39:21.113Z,18.98
2023-02-13T23:41:48.348Z,18.60
2023-02-13T23:44:17.911Z,18.27
2023-02-13T23:46:47.416Z,16.55
2023-02-13T23:49:14.764Z,18.60
2023-02-13T23:51:44.191Z,19.27
2023-02-13T23:54:18.191Z,17.90
2023-02-13T23:56:48.652Z,20.98
2023-02-13T23:59:17.359Z,20.20
